sensor_id;sensor_type;location;lat;lon;timestamp;P1;durP1;ratioP1;P2;durP2;ratioP2
3267;SDS011;1646;52.450;13.326;2023-12-28T00:00:10;7.03;;;4.43;;
3267;SDS011;1646;52.450;13.326;2023-12-28T00:05:10;12.30;;;4.97;;
3267;SDS011;1646;52.450;13.326;2023-12-28T00:10:09;9.00;;;4.77;;
3267;SDS011;1646;52.450;13.326;2023-12-28T00:15:08;9.23;;;3.90;;
3267;SDS011;1646;52.450;13.326;2023-12-28T00:20:07;14.70;;;4.33;;
3267;SDS011;1646;52.450;13.326;2023-12-28T00:25:07;14.20;;;4.27;;
3267;SDS011;1646;52.450;13.326;2023-12-28T00:30:06;9.03;;;4.13;;
3267;SDS011;1646;52.450;13.326;2023-12-28T00:35:05;8.70;;;3.80;;
3267;SDS011;1646;52.450;13.326;2023-12-28T00:40:04;7.70;;;4.00;;
3267;SDS011;1646;52.450;13.326;2023-12-28T00:45:05;5.10;;;3.47;;
3267;SDS011;1646;52.450;13.326;2023-12-28T00:50:05;4.30;;;3.27;;
3267;SDS011;1646;52.450;13.326;2023-12-28T00:55:05;6.97;;;3.70;;
3267;SDS011;1646;52.450;13.326;2023-12-28T01:00:07;3.80;;;2.97;;
3267;SDS011;1646;52.450;13.326;2023-12-28T01:05:06;10.20;;;3.07;;
3267;SDS011;1646;52.450;13.326;2023-12-28T01:10:05;6.03;;;3.03;;
3267;SDS011;1646;52.450;13.326;2023-12-28T01:15:05;8.00;;;2.93;;
3267;SDS011;1646;52.450;13.326;2023-12-28T01:20:06;4.77;;;3.00;;
3267;SDS011;1646;52.450;13.326;2023-12-28T01:25:06;11.73;;;3.87;;
3267;SDS011;1646;52.450;13.326;2023-12-28T01:30:07;4.03;;;2.33;;
3267;SDS011;1646;52.450;13.326;2023-12-28T01:35:06;4.70;;;3.00;;
3267;SDS011;1646;52.450;13.326;2023-12-28T01:40:05;7.10;;;2.40;;
3267;SDS011;1646;52.450;13.326;2023-12-28T01:45:07;5.27;;;2.30;;
3267;SDS011;1646;52.450;13.326;2023-12-28T01:50:06;3.50;;;2.17;;
3267;SDS011;1646;52.450;13.326;2023-12-28T01:55:05;4.80;;;2.60;;
3267;SDS011;1646;52.450;13.326;2023-12-28T02:00:07;4.00;;;2.13;;
3267;SDS011;1646;52.450;13.326;2023-12-28T02:05:10;3.23;;;2.20;;
3267;SDS011;1646;52.450;13.326;2023-12-28T02:10:09;5.53;;;1.93;;
3267;SDS011;1646;52.450;13.326;2023-12-28T02:15:09;3.83;;;2.40;;
3267;SDS011;1646;52.450;13.326;2023-12-28T02:20:08;2.53;;;1.87;;
3267;SDS011;1646;52.450;13.326;2023-12-28T02:25:10;3.83;;;1.80;;
3267;SDS011;1646;52.450;13.326;2023-12-28T02:30:10;3.20;;;1.93;;
3267;SDS011;1646;52.450;13.326;2023-12-28T02:35:12;3.90;;;1.70;;
3267;SDS011;1646;52.450;13.326;2023-12-28T02:40:16;4.47;;;2.20;;
3267;SDS011;1646;52.450;13.326;2023-12-28T02:45:15;2.90;;;1.80;;
3267;SDS011;1646;52.450;13.326;2023-12-28T02:50:15;3.23;;;1.70;;
3267;SDS011;1646;52.450;13.326;2023-12-28T02:55:13;1.67;;;1.57;;
3267;SDS011;1646;52.450;13.326;2023-12-28T03:00:14;1.67;;;1.30;;
3267;SDS011;1646;52.450;13.326;2023-12-28T03:05:13;1.60;;;1.50;;
3267;SDS011;1646;52.450;13.326;2023-12-28T03:10:11;4.40;;;1.40;;
3267;SDS011;1646;52.450;13.326;2023-12-28T03:15:12;4.20;;;1.57;;
3267;SDS011;1646;52.450;13.326;2023-12-28T03:20:11;3.40;;;1.47;;
3267;SDS011;1646;52.450;13.326;2023-12-28T03:25:09;2.53;;;1.50;;
3267;SDS011;1646;52.450;13.326;2023-12-28T03:30:08;3.90;;;1.70;;
3267;SDS011;1646;52.450;13.326;2023-12-28T03:35:09;1.60;;;1.33;;
3267;SDS011;1646;52.450;13.326;2023-12-28T03:40:07;2.33;;;1.30;;
3267;SDS011;1646;52.450;13.326;2023-12-28T03:45:07;2.20;;;1.37;;
3267;SDS011;1646;52.450;13.326;2023-12-28T03:50:06;2.40;;;1.30;;
3267;SDS011;1646;52.450;13.326;2023-12-28T03:55:06;1.93;;;1.50;;
3267;SDS011;1646;52.450;13.326;2023-12-28T04:00:05;4.20;;;1.70;;
3267;SDS011;1646;52.450;13.326;2023-12-28T04:05:08;2.10;;;1.30;;
3267;SDS011;1646;52.450;13.326;2023-12-28T04:10:08;3.13;;;1.43;;
3267;SDS011;1646;52.450;13.326;2023-12-28T04:15:07;2.80;;;1.43;;
3267;SDS011;1646;52.450;13.326;2023-12-28T04:20:06;1.63;;;1.03;;
3267;SDS011;1646;52.450;13.326;2023-12-28T04:25:05;2.20;;;1.30;;
3267;SDS011;1646;52.450;13.326;2023-12-28T04:30:06;2.70;;;1.47;;
3267;SDS011;1646;52.450;13.326;2023-12-28T04:35:05;2.53;;;1.20;;
3267;SDS011;1646;52.450;13.326;2023-12-28T04:40:04;2.90;;;1.90;;
3267;SDS011;1646;52.450;13.326;2023-12-28T04:45:05;1.60;;;1.20;;
3267;SDS011;1646;52.450;13.326;2023-12-28T04:50:05;5.60;;;1.67;;
3267;SDS011;1646;52.450;13.326;2023-12-28T04:55:05;2.80;;;1.50;;
3267;SDS011;1646;52.450;13.326;2023-12-28T05:00:06;1.57;;;1.10;;
3267;SDS011;1646;52.450;13.326;2023-12-28T05:05:06;3.57;;;1.50;;
3267;SDS011;1646;52.450;13.326;2023-12-28T05:10:05;3.00;;;1.60;;
3267;SDS011;1646;52.450;13.326;2023-12-28T05:15:06;3.33;;;1.53;;
3267;SDS011;1646;52.450;13.326;2023-12-28T05:20:05;1.97;;;1.47;;
3267;SDS011;1646;52.450;13.326;2023-12-28T05:25:04;3.23;;;0.90;;
3267;SDS011;1646;52.450;13.326;2023-12-28T05:30:04;5.13;;;1.60;;
3267;SDS011;1646;52.450;13.326;2023-12-28T05:35:05;1.30;;;1.00;;
3267;SDS011;1646;52.450;13.326;2023-12-28T05:40:04;2.10;;;1.50;;
3267;SDS011;1646;52.450;13.326;2023-12-28T05:45:08;2.20;;;1.37;;
3267;SDS011;1646;52.450;13.326;2023-12-28T05:50:07;2.63;;;1.77;;
3267;SDS011;1646;52.450;13.326;2023-12-28T05:55:07;1.53;;;1.17;;
3267;SDS011;1646;52.450;13.326;2023-12-28T06:00:06;3.40;;;1.53;;
3267;SDS011;1646;52.450;13.326;2023-12-28T06:05:09;2.27;;;1.03;;
3267;SDS011;1646;52.450;13.326;2023-12-28T06:10:07;3.07;;;1.27;;
3267;SDS011;1646;52.450;13.326;2023-12-28T06:15:08;1.30;;;1.20;;
3267;SDS011;1646;52.450;13.326;2023-12-28T06:20:07;1.97;;;1.40;;
3267;SDS011;1646;52.450;13.326;2023-12-28T06:25:06;1.80;;;1.37;;
3267;SDS011;1646;52.450;13.326;2023-12-28T06:30:06;4.00;;;1.30;;
3267;SDS011;1646;52.450;13.326;2023-12-28T06:35:06;6.30;;;1.47;;
3267;SDS011;1646;52.450;13.326;2023-12-28T06:40:05;5.80;;;3.20;;
3267;SDS011;1646;52.450;13.326;2023-12-28T06:45:05;3.10;;;2.03;;
3267;SDS011;1646;52.450;13.326;2023-12-28T06:50:06;2.97;;;1.33;;
3267;SDS011;1646;52.450;13.326;2023-12-28T06:55:06;2.33;;;1.50;;
3267;SDS011;1646;52.450;13.326;2023-12-28T07:00:05;2.20;;;1.60;;
3267;SDS011;1646;52.450;13.326;2023-12-28T07:05:06;2.47;;;1.30;;
3267;SDS011;1646;52.450;13.326;2023-12-28T07:10:05;2.53;;;1.67;;
3267;SDS011;1646;52.450;13.326;2023-12-28T07:15:04;1.60;;;1.30;;
3267;SDS011;1646;52.450;13.326;2023-12-28T07:20:03;3.30;;;1.90;;
3267;SDS011;1646;52.450;13.326;2023-12-28T07:25:06;2.80;;;1.47;;
3267;SDS011;1646;52.450;13.326;2023-12-28T07:30:05;4.20;;;1.47;;
3267;SDS011;1646;52.450;13.326;2023-12-28T07:35:06;2.20;;;1.63;;
3267;SDS011;1646;52.450;13.326;2023-12-28T07:40:05;1.60;;;1.30;;
3267;SDS011;1646;52.450;13.326;2023-12-28T07:45:04;2.50;;;1.80;;
3267;SDS011;1646;52.450;13.326;2023-12-28T07:50:03;3.70;;;1.83;;
3267;SDS011;1646;52.450;13.326;2023-12-28T07:55:04;1.47;;;1.37;;
3267;SDS011;1646;52.450;13.326;2023-12-28T08:00:03;1.43;;;1.30;;
3267;SDS011;1646;52.450;13.326;2023-12-28T08:05:03;2.93;;;1.30;;
3267;SDS011;1646;52.450;13.326;2023-12-28T08:10:03;2.00;;;1.30;;
3267;SDS011;1646;52.450;13.326;2023-12-28T08:15:02;1.73;;;1.30;;
3267;SDS011;1646;52.450;13.326;2023-12-28T08:20:01;1.63;;;1.20;;
3267;SDS011;1646;52.450;13.326;2023-12-28T08:25:00;2.40;;;1.73;;
3267;SDS011;1646;52.450;13.326;2023-12-28T08:30:00;6.10;;;2.07;;
3267;SDS011;1646;52.450;13.326;2023-12-28T08:34:59;2.97;;;1.77;;
3267;SDS011;1646;52.450;13.326;2023-12-28T08:39:59;2.47;;;2.00;;
3267;SDS011;1646;52.450;13.326;2023-12-28T08:44:59;1.57;;;1.47;;
3267;SDS011;1646;52.450;13.326;2023-12-28T08:49:58;3.63;;;1.80;;
3267;SDS011;1646;52.450;13.326;2023-12-28T08:54:56;6.57;;;2.17;;
3267;SDS011;1646;52.450;13.326;2023-12-28T08:59:55;1.97;;;1.30;;
3267;SDS011;1646;52.450;13.326;2023-12-28T09:04:55;3.33;;;1.97;;
3267;SDS011;1646;52.450;13.326;2023-12-28T09:09:53;3.80;;;2.00;;
3267;SDS011;1646;52.450;13.326;2023-12-28T09:14:51;2.97;;;2.17;;
3267;SDS011;1646;52.450;13.326;2023-12-28T09:19:50;3.27;;;2.37;;
3267;SDS011;1646;52.450;13.326;2023-12-28T09:24:51;2.77;;;1.90;;
3267;SDS011;1646;52.450;13.326;2023-12-28T09:29:49;3.27;;;2.10;;
3267;SDS011;1646;52.450;13.326;2023-12-28T09:34:47;2.80;;;1.90;;
3267;SDS011;1646;52.450;13.326;2023-12-28T09:39:46;2.40;;;1.90;;
3267;SDS011;1646;52.450;13.326;2023-12-28T09:44:46;9.20;;;2.00;;
3267;SDS011;1646;52.450;13.326;2023-12-28T09:49:45;3.93;;;2.17;;
3267;SDS011;1646;52.450;13.326;2023-12-28T09:54:45;3.33;;;1.90;;
3267;SDS011;1646;52.450;13.326;2023-12-28T09:59:43;5.20;;;2.10;;
3267;SDS011;1646;52.450;13.326;2023-12-28T10:04:43;3.87;;;1.83;;
3267;SDS011;1646;52.450;13.326;2023-12-28T10:09:41;8.03;;;2.93;;
3267;SDS011;1646;52.450;13.326;2023-12-28T10:14:40;4.90;;;2.57;;
3267;SDS011;1646;52.450;13.326;2023-12-28T10:19:40;4.80;;;1.90;;
3267;SDS011;1646;52.450;13.326;2023-12-28T10:24:47;4.70;;;2.37;;
3267;SDS011;1646;52.450;13.326;2023-12-28T10:29:45;3.17;;;2.30;;
3267;SDS011;1646;52.450;13.326;2023-12-28T10:34:45;4.03;;;2.30;;
3267;SDS011;1646;52.450;13.326;2023-12-28T10:39:46;23.87;;;2.53;;
3267;SDS011;1646;52.450;13.326;2023-12-28T10:44:46;4.03;;;2.03;;
3267;SDS011;1646;52.450;13.326;2023-12-28T10:49:49;2.23;;;2.03;;
3267;SDS011;1646;52.450;13.326;2023-12-28T10:54:53;3.53;;;2.13;;
3267;SDS011;1646;52.450;13.326;2023-12-28T11:00:00;2.90;;;2.17;;
3267;SDS011;1646;52.450;13.326;2023-12-28T11:05:04;2.33;;;2.13;;
3267;SDS011;1646;52.450;13.326;2023-12-28T11:10:05;4.37;;;2.10;;
3267;SDS011;1646;52.450;13.326;2023-12-28T11:15:07;4.50;;;2.17;;
3267;SDS011;1646;52.450;13.326;2023-12-28T11:20:10;3.27;;;2.10;;
3267;SDS011;1646;52.450;13.326;2023-12-28T11:25:14;3.70;;;1.93;;
3267;SDS011;1646;52.450;13.326;2023-12-28T11:30:13;4.40;;;2.07;;
3267;SDS011;1646;52.450;13.326;2023-12-28T11:35:13;3.40;;;2.00;;
3267;SDS011;1646;52.450;13.326;2023-12-28T11:40:16;5.53;;;2.40;;
3267;SDS011;1646;52.450;13.326;2023-12-28T11:45:16;2.93;;;2.10;;
3267;SDS011;1646;52.450;13.326;2023-12-28T11:50:17;4.87;;;2.03;;
3267;SDS011;1646;52.450;13.326;2023-12-28T11:55:20;3.23;;;2.00;;
3267;SDS011;1646;52.450;13.326;2023-12-28T12:00:19;3.50;;;2.20;;
3267;SDS011;1646;52.450;13.326;2023-12-28T12:05:19;3.20;;;2.40;;
3267;SDS011;1646;52.450;13.326;2023-12-28T12:10:36;3.40;;;2.37;;
3267;SDS011;1646;52.450;13.326;2023-12-28T12:15:34;4.70;;;2.00;;
3267;SDS011;1646;52.450;13.326;2023-12-28T12:20:34;5.73;;;2.07;;
3267;SDS011;1646;52.450;13.326;2023-12-28T12:25:35;2.53;;;2.00;;
3267;SDS011;1646;52.450;13.326;2023-12-28T12:30:34;3.37;;;1.80;;
3267;SDS011;1646;52.450;13.326;2023-12-28T12:35:34;2.23;;;1.67;;
3267;SDS011;1646;52.450;13.326;2023-12-28T12:40:32;3.67;;;1.93;;
3267;SDS011;1646;52.450;13.326;2023-12-28T12:45:31;2.37;;;1.60;;
3267;SDS011;1646;52.450;13.326;2023-12-28T12:50:30;3.63;;;1.90;;
3267;SDS011;1646;52.450;13.326;2023-12-28T12:55:31;3.47;;;1.90;;
3267;SDS011;1646;52.450;13.326;2023-12-28T13:00:29;3.10;;;2.13;;
3267;SDS011;1646;52.450;13.326;2023-12-28T13:05:27;2.03;;;1.63;;
3267;SDS011;1646;52.450;13.326;2023-12-28T13:10:26;5.03;;;2.20;;
3267;SDS011;1646;52.450;13.326;2023-12-28T13:15:26;3.00;;;2.30;;
3267;SDS011;1646;52.450;13.326;2023-12-28T13:20:24;5.03;;;1.50;;
3267;SDS011;1646;52.450;13.326;2023-12-28T13:25:23;3.40;;;1.90;;
3267;SDS011;1646;52.450;13.326;2023-12-28T13:30:21;3.10;;;1.70;;
3267;SDS011;1646;52.450;13.326;2023-12-28T13:35:24;3.10;;;1.83;;
3267;SDS011;1646;52.450;13.326;2023-12-28T13:40:22;5.43;;;2.37;;
3267;SDS011;1646;52.450;13.326;2023-12-28T13:45:21;4.13;;;1.90;;
3267;SDS011;1646;52.450;13.326;2023-12-28T13:50:19;4.40;;;1.90;;
3267;SDS011;1646;52.450;13.326;2023-12-28T13:55:19;4.00;;;2.00;;
3267;SDS011;1646;52.450;13.326;2023-12-28T14:00:17;5.73;;;1.70;;
3267;SDS011;1646;52.450;13.326;2023-12-28T14:05:16;3.13;;;2.10;;
3267;SDS011;1646;52.450;13.326;2023-12-28T14:10:16;3.93;;;2.07;;
3267;SDS011;1646;52.450;13.326;2023-12-28T14:15:16;2.50;;;1.67;;
3267;SDS011;1646;52.450;13.326;2023-12-28T14:20:15;4.60;;;2.10;;
3267;SDS011;1646;52.450;13.326;2023-12-28T14:25:14;2.90;;;1.70;;
3267;SDS011;1646;52.450;13.326;2023-12-28T14:30:15;4.07;;;2.00;;
3267;SDS011;1646;52.450;13.326;2023-12-28T14:35:15;6.20;;;1.93;;
3267;SDS011;1646;52.450;13.326;2023-12-28T14:40:14;3.03;;;1.60;;
3267;SDS011;1646;52.450;13.326;2023-12-28T14:45:12;3.10;;;1.60;;
3267;SDS011;1646;52.450;13.326;2023-12-28T14:50:13;6.63;;;1.97;;
3267;SDS011;1646;52.450;13.326;2023-12-28T14:55:11;2.83;;;2.03;;
3267;SDS011;1646;52.450;13.326;2023-12-28T15:00:10;6.73;;;2.10;;
3267;SDS011;1646;52.450;13.326;2023-12-28T15:05:10;2.90;;;1.87;;
3267;SDS011;1646;52.450;13.326;2023-12-28T15:10:10;3.87;;;1.83;;
3267;SDS011;1646;52.450;13.326;2023-12-28T15:15:10;4.80;;;2.00;;
3267;SDS011;1646;52.450;13.326;2023-12-28T15:20:11;5.00;;;2.03;;
3267;SDS011;1646;52.450;13.326;2023-12-28T15:25:10;2.87;;;1.63;;
3267;SDS011;1646;52.450;13.326;2023-12-28T15:30:09;7.20;;;2.37;;
3267;SDS011;1646;52.450;13.326;2023-12-28T15:35:11;7.33;;;1.90;;
3267;SDS011;1646;52.450;13.326;2023-12-28T15:40:13;5.53;;;2.30;;
3267;SDS011;1646;52.450;13.326;2023-12-28T15:45:11;4.23;;;1.30;;
3267;SDS011;1646;52.450;13.326;2023-12-28T15:50:10;3.87;;;1.77;;
3267;SDS011;1646;52.450;13.326;2023-12-28T15:55:10;2.87;;;1.70;;
3267;SDS011;1646;52.450;13.326;2023-12-28T16:00:09;6.80;;;2.97;;
3267;SDS011;1646;52.450;13.326;2023-12-28T16:05:08;3.07;;;2.27;;
3267;SDS011;1646;52.450;13.326;2023-12-28T16:10:07;2.50;;;1.77;;
3267;SDS011;1646;52.450;13.326;2023-12-28T16:15:08;2.10;;;1.53;;
3267;SDS011;1646;52.450;13.326;2023-12-28T16:20:07;7.20;;;1.93;;
3267;SDS011;1646;52.450;13.326;2023-12-28T16:25:07;4.97;;;1.93;;
3267;SDS011;1646;52.450;13.326;2023-12-28T16:30:08;7.80;;;2.83;;
3267;SDS011;1646;52.450;13.326;2023-12-28T16:35:07;5.03;;;2.40;;
3267;SDS011;1646;52.450;13.326;2023-12-28T16:40:06;4.50;;;2.00;;
3267;SDS011;1646;52.450;13.326;2023-12-28T16:45:08;3.00;;;2.07;;
3267;SDS011;1646;52.450;13.326;2023-12-28T16:50:07;3.63;;;1.80;;
3267;SDS011;1646;52.450;13.326;2023-12-28T16:55:06;2.73;;;1.63;;
3267;SDS011;1646;52.450;13.326;2023-12-28T17:00:05;2.83;;;1.70;;
3267;SDS011;1646;52.450;13.326;2023-12-28T17:05:10;2.50;;;1.77;;
3267;SDS011;1646;52.450;13.326;2023-12-28T17:10:10;6.93;;;2.40;;
3267;SDS011;1646;52.450;13.326;2023-12-28T17:15:09;7.70;;;3.63;;
3267;SDS011;1646;52.450;13.326;2023-12-28T17:20:11;4.80;;;2.93;;
3267;SDS011;1646;52.450;13.326;2023-12-28T17:25:13;6.10;;;2.70;;
3267;SDS011;1646;52.450;13.326;2023-12-28T17:30:22;3.83;;;1.90;;
3267;SDS011;1646;52.450;13.326;2023-12-28T17:35:24;3.27;;;1.73;;
3267;SDS011;1646;52.450;13.326;2023-12-28T17:40:23;2.30;;;1.70;;
3267;SDS011;1646;52.450;13.326;2023-12-28T17:45:25;4.20;;;1.70;;
3267;SDS011;1646;52.450;13.326;2023-12-28T17:50:39;2.17;;;1.80;;
3267;SDS011;1646;52.450;13.326;2023-12-28T17:55:38;3.53;;;1.60;;
3267;SDS011;1646;52.450;13.326;2023-12-28T18:00:37;3.03;;;1.80;;
3267;SDS011;1646;52.450;13.326;2023-12-28T18:05:35;4.90;;;2.20;;
3267;SDS011;1646;52.450;13.326;2023-12-28T18:10:35;3.80;;;1.93;;
3267;SDS011;1646;52.450;13.326;2023-12-28T18:15:33;6.70;;;1.83;;
3267;SDS011;1646;52.450;13.326;2023-12-28T18:20:32;1.93;;;1.57;;
3267;SDS011;1646;52.450;13.326;2023-12-28T18:25:30;3.17;;;1.50;;
3267;SDS011;1646;52.450;13.326;2023-12-28T18:30:29;3.50;;;1.50;;
3267;SDS011;1646;52.450;13.326;2023-12-28T18:35:28;1.97;;;1.30;;
3267;SDS011;1646;52.450;13.326;2023-12-28T18:40:26;2.10;;;1.63;;
3267;SDS011;1646;52.450;13.326;2023-12-28T18:45:25;2.33;;;1.47;;
3267;SDS011;1646;52.450;13.326;2023-12-28T18:50:25;2.10;;;1.50;;
3267;SDS011;1646;52.450;13.326;2023-12-28T18:55:23;4.50;;;1.90;;
3267;SDS011;1646;52.450;13.326;2023-12-28T19:00:21;5.37;;;2.13;;
3267;SDS011;1646;52.450;13.326;2023-12-28T19:05:20;1.87;;;1.77;;
3267;SDS011;1646;52.450;13.326;2023-12-28T19:10:20;2.97;;;1.93;;
3267;SDS011;1646;52.450;13.326;2023-12-28T19:15:19;4.43;;;2.10;;
3267;SDS011;1646;52.450;13.326;2023-12-28T19:20:18;4.70;;;2.23;;
3267;SDS011;1646;52.450;13.326;2023-12-28T19:25:16;2.43;;;1.37;;
3267;SDS011;1646;52.450;13.326;2023-12-28T19:30:17;3.00;;;1.63;;
3267;SDS011;1646;52.450;13.326;2023-12-28T19:35:16;6.53;;;1.90;;
3267;SDS011;1646;52.450;13.326;2023-12-28T19:40:15;2.50;;;1.53;;
3267;SDS011;1646;52.450;13.326;2023-12-28T19:45:14;3.70;;;1.63;;
3267;SDS011;1646;52.450;13.326;2023-12-28T19:50:14;5.20;;;2.70;;
3267;SDS011;1646;52.450;13.326;2023-12-28T19:55:12;2.47;;;1.73;;
3267;SDS011;1646;52.450;13.326;2023-12-28T20:00:11;3.47;;;1.90;;
3267;SDS011;1646;52.450;13.326;2023-12-28T20:05:11;2.57;;;1.70;;
3267;SDS011;1646;52.450;13.326;2023-12-28T20:10:10;7.00;;;2.20;;
3267;SDS011;1646;52.450;13.326;2023-12-28T20:15:09;7.57;;;1.87;;
3267;SDS011;1646;52.450;13.326;2023-12-28T20:20:10;4.57;;;2.00;;
3267;SDS011;1646;52.450;13.326;2023-12-28T20:25:09;3.00;;;1.83;;
3267;SDS011;1646;52.450;13.326;2023-12-28T20:30:09;2.63;;;1.70;;
3267;SDS011;1646;52.450;13.326;2023-12-28T20:35:08;6.20;;;2.10;;
3267;SDS011;1646;52.450;13.326;2023-12-28T20:40:07;5.10;;;2.07;;
3267;SDS011;1646;52.450;13.326;2023-12-28T20:45:08;8.53;;;2.67;;
3267;SDS011;1646;52.450;13.326;2023-12-28T20:50:07;6.03;;;2.80;;
3267;SDS011;1646;52.450;13.326;2023-12-28T20:55:08;5.67;;;3.53;;
3267;SDS011;1646;52.450;13.326;2023-12-28T21:00:09;5.53;;;2.93;;
3267;SDS011;1646;52.450;13.326;2023-12-28T21:05:08;4.43;;;2.50;;
3267;SDS011;1646;52.450;13.326;2023-12-28T21:10:07;5.93;;;3.20;;
3267;SDS011;1646;52.450;13.326;2023-12-28T21:15:06;2.63;;;2.43;;
3267;SDS011;1646;52.450;13.326;2023-12-28T21:20:06;4.37;;;2.03;;
3267;SDS011;1646;52.450;13.326;2023-12-28T21:25:07;3.50;;;2.20;;
3267;SDS011;1646;52.450;13.326;2023-12-28T21:30:06;4.87;;;2.30;;
3267;SDS011;1646;52.450;13.326;2023-12-28T21:35:07;6.00;;;2.77;;
3267;SDS011;1646;52.450;13.326;2023-12-28T21:40:07;5.00;;;2.40;;
3267;SDS011;1646;52.450;13.326;2023-12-28T21:45:06;6.53;;;2.67;;
3267;SDS011;1646;52.450;13.326;2023-12-28T21:50:07;4.13;;;2.07;;
3267;SDS011;1646;52.450;13.326;2023-12-28T21:55:06;4.63;;;2.33;;
3267;SDS011;1646;52.450;13.326;2023-12-28T22:00:05;4.77;;;2.77;;
3267;SDS011;1646;52.450;13.326;2023-12-28T22:05:06;3.73;;;2.30;;
3267;SDS011;1646;52.450;13.326;2023-12-28T22:10:07;2.80;;;1.80;;
3267;SDS011;1646;52.450;13.326;2023-12-28T22:15:06;2.87;;;1.97;;
3267;SDS011;1646;52.450;13.326;2023-12-28T22:20:07;4.13;;;2.20;;
3267;SDS011;1646;52.450;13.326;2023-12-28T22:25:06;5.10;;;2.13;;
3267;SDS011;1646;52.450;13.326;2023-12-28T22:30:05;4.67;;;2.00;;
3267;SDS011;1646;52.450;13.326;2023-12-28T22:35:05;3.53;;;1.63;;
3267;SDS011;1646;52.450;13.326;2023-12-28T22:40:06;3.93;;;2.23;;
3267;SDS011;1646;52.450;13.326;2023-12-28T22:45:05;4.20;;;2.30;;
3267;SDS011;1646;52.450;13.326;2023-12-28T22:50:04;3.00;;;1.90;;
3267;SDS011;1646;52.450;13.326;2023-12-28T22:55:05;3.63;;;2.33;;
3267;SDS011;1646;52.450;13.326;2023-12-28T23:00:04;5.00;;;2.00;;
3267;SDS011;1646;52.450;13.326;2023-12-28T23:05:15;4.37;;;1.93;;
3267;SDS011;1646;52.450;13.326;2023-12-28T23:10:13;7.87;;;1.97;;
3267;SDS011;1646;52.450;13.326;2023-12-28T23:15:12;2.80;;;1.63;;
3267;SDS011;1646;52.450;13.326;2023-12-28T23:20:10;5.30;;;2.50;;
3267;SDS011;1646;52.450;13.326;2023-12-28T23:25:13;4.20;;;1.93;;
3267;SDS011;1646;52.450;13.326;2023-12-28T23:30:12;4.03;;;1.60;;
3267;SDS011;1646;52.450;13.326;2023-12-28T23:35:11;1.70;;;1.53;;
3267;SDS011;1646;52.450;13.326;2023-12-28T23:40:10;2.80;;;1.80;;
3267;SDS011;1646;52.450;13.326;2023-12-28T23:45:10;1.53;;;1.40;;
3267;SDS011;1646;52.450;13.326;2023-12-28T23:50:09;2.90;;;1.40;;
3267;SDS011;1646;52.450;13.326;2023-12-28T23:55:07;2.33;;;1.27;;
